Terminal Aerodrome Forecast
Issued by NWS

Current Version | Previous Version | Text Only | Print | Product List | Glossary On
Versions: 1 2 3 4 5 6 7 8 9 10 11 12 13 14 15
000
FTUS43 KABR 202300
TAFMBG
TAF
KMBG 202325Z 2100/2124 12015KT P6SM OVC150
     FM210200 12006KT P6SM VCTS SCT050CB BKN150
     FM210500 35007KT P6SM BKN150=

USA.gov is the U.S. government's official web portal to all federal, state and local government web resources and services.